createdAt,value
2022-09-24T00:00:10.207Z,954.7000
2022-09-24T00:00:21.332Z,954.7000
2022-09-24T00:00:32.516Z,954.7000
2022-09-24T00:00:43.577Z,954.7000
2022-09-24T00:00:54.770Z,954.7200
2022-09-24T00:01:05.895Z,954.7000
2022-09-24T00:01:16.949Z,954.7000
2022-09-24T00:01:28.130Z,954.7000
2022-09-24T00:01:39.950Z,954.7000
2022-09-24T00:01:51.249Z,954.6800
2022-09-24T00:02:02.419Z,954.6800
2022-09-24T00:02:13.580Z,954.6800
2022-09-24T00:02:24.988Z,954.7000
2022-09-24T00:02:36.355Z,954.7000
2022-09-24T00:02:47.518Z,954.7000
2022-09-24T00:02:58.726Z,954.7000
2022-09-24T00:03:10.181Z,954.7000
2022-09-24T00:03:21.351Z,954.7000
2022-09-24T00:03:32.612Z,954.6800
2022-09-24T00:03:43.911Z,954.6800
2022-09-24T00:03:55.141Z,954.6800
2022-09-24T00:04:06.353Z,954.6800
2022-09-24T00:04:17.453Z,954.6800
2022-09-24T00:04:28.612Z,954.6800
2022-09-24T00:04:39.678Z,954.6800
2022-09-24T00:04:50.730Z,954.6800
2022-09-24T00:05:01.771Z,954.6800
2022-09-24T00:05:12.903Z,954.6800
2022-09-24T00:05:24.083Z,954.6800
2022-09-24T00:05:35.283Z,954.6800
2022-09-24T00:05:46.510Z,954.6800
2022-09-24T00:05:57.785Z,954.6800
2022-09-24T00:06:08.858Z,954.7000
2022-09-24T00:06:19.956Z,954.7000
2022-09-24T00:06:31.076Z,954.6800
2022-09-24T00:06:42.402Z,954.6800
2022-09-24T00:06:53.467Z,954.6800
2022-09-24T00:07:04.507Z,954.6600
2022-09-24T00:07:15.582Z,954.6800
2022-09-24T00:07:26.701Z,954.7000
2022-09-24T00:07:37.902Z,954.7000
2022-09-24T00:07:49.119Z,954.6800
2022-09-24T00:08:00.256Z,954.6800
2022-09-24T00:08:11.331Z,954.6800
2022-09-24T00:08:22.391Z,954.6800
2022-09-24T00:08:33.479Z,954.6600
2022-09-24T00:08:44.516Z,954.6400
2022-09-24T00:08:55.577Z,954.6400
2022-09-24T00:09:06.733Z,954.6400
2022-09-24T00:09:17.937Z,954.6400
2022-09-24T00:09:29.015Z,954.6400
2022-09-24T00:09:40.095Z,954.6200
2022-09-24T00:09:51.155Z,954.6200
2022-09-24T00:10:02.305Z,954.6000
2022-09-24T00:10:13.367Z,954.6000
2022-09-24T00:10:24.443Z,954.6200
2022-09-24T00:10:35.487Z,954.6200
2022-09-24T00:10:46.543Z,954.6000
2022-09-24T00:10:57.608Z,954.6000
2022-09-24T00:11:08.767Z,954.6000
2022-09-24T00:11:19.992Z,954.6000
2022-09-24T00:11:31.169Z,954.5800
2022-09-24T00:11:42.383Z,954.5800
2022-09-24T00:11:53.515Z,954.5800
2022-09-24T00:12:04.598Z,954.5800
2022-09-24T00:12:15.675Z,954.5800
2022-09-24T00:12:26.742Z,954.5800
2022-09-24T00:12:37.936Z,954.5600
2022-09-24T00:12:48.988Z,954.5800
2022-09-24T00:13:00.058Z,954.5800
2022-09-24T00:13:11.216Z,954.5800
2022-09-24T00:13:22.391Z,954.5800
2022-09-24T00:13:33.431Z,954.5600
2022-09-24T00:13:44.512Z,954.5600
2022-09-24T00:13:55.647Z,954.5600
2022-09-24T00:14:06.802Z,954.5600
2022-09-24T00:14:17.876Z,954.5800
2022-09-24T00:14:29.043Z,954.5600
2022-09-24T00:14:40.099Z,954.5600
2022-09-24T00:14:51.262Z,954.5600
2022-09-24T00:15:02.313Z,954.5600
2022-09-24T00:15:13.492Z,954.5800
2022-09-24T00:15:24.719Z,954.5600
2022-09-24T00:15:35.762Z,954.5600
2022-09-24T00:15:47.030Z,954.5600
2022-09-24T00:15:58.186Z,954.5600
2022-09-24T00:16:09.297Z,954.5600
2022-09-24T00:16:20.486Z,954.5600
2022-09-24T00:16:31.871Z,954.5600
2022-09-24T00:16:43.183Z,954.5400
2022-09-24T00:16:54.233Z,954.5400
2022-09-24T00:17:05.324Z,954.5600
2022-09-24T00:17:16.379Z,954.5600
2022-09-24T00:17:27.755Z,954.5600
2022-09-24T00:17:38.929Z,954.5600
2022-09-24T00:17:50.127Z,954.5600
2022-09-24T00:18:01.276Z,954.5600
2022-09-24T00:18:12.644Z,954.5600
2022-09-24T00:18:23.735Z,954.5400
2022-09-24T00:18:34.796Z,954.5600
2022-09-24T00:18:45.863Z,954.5200
2022-09-24T00:18:56.974Z,954.5400
2022-09-24T00:19:08.190Z,954.5400
2022-09-24T00:19:19.357Z,954.5400
2022-09-24T00:19:30.482Z,954.5400
2022-09-24T00:19:41.723Z,954.5400
2022-09-24T00:19:52.908Z,954.5400
2022-09-24T00:20:04.044Z,954.5400
2022-09-24T00:20:15.114Z,954.5400
2022-09-24T00:20:26.169Z,954.5400
2022-09-24T00:20:37.212Z,954.5400
2022-09-24T00:20:48.288Z,954.5400
2022-09-24T00:20:59.341Z,954.5400
2022-09-24T00:21:10.413Z,954.5200
2022-09-24T00:21:21.643Z,954.5200
2022-09-24T00:21:32.788Z,954.5400
2022-09-24T00:21:43.829Z,954.5400
2022-09-24T00:21:55.032Z,954.5400
2022-09-24T00:22:06.067Z,954.5400
2022-09-24T00:22:17.215Z,954.5400
2022-09-24T00:22:28.399Z,954.5200
2022-09-24T00:22:39.615Z,954.5200
2022-09-24T00:22:50.797Z,954.5200
2022-09-24T00:23:01.868Z,954.5200
2022-09-24T00:23:12.919Z,954.5200
2022-09-24T00:23:24.075Z,954.5000
2022-09-24T00:23:35.429Z,954.5200
2022-09-24T00:23:46.518Z,954.5200
2022-09-24T00:23:57.564Z,954.5000
2022-09-24T00:24:08.689Z,954.5000
2022-09-24T00:24:19.791Z,954.5000
2022-09-24T00:24:30.991Z,954.4800
2022-09-24T00:24:42.032Z,954.4600
2022-09-24T00:24:53.070Z,954.4600
2022-09-24T00:25:04.273Z,954.4600
2022-09-24T00:25:15.471Z,954.4600
2022-09-24T00:25:26.600Z,954.4600
2022-09-24T00:25:37.661Z,954.4600
2022-09-24T00:25:48.860Z,954.4600
2022-09-24T00:25:59.914Z,954.4600
2022-09-24T00:26:11.114Z,954.4400
2022-09-24T00:26:22.245Z,954.4400
2022-09-24T00:26:33.332Z,954.4300
2022-09-24T00:26:44.389Z,954.4300
2022-09-24T00:26:55.599Z,954.4600
2022-09-24T00:27:06.666Z,954.4600
2022-09-24T00:27:17.851Z,954.4300
2022-09-24T00:27:28.991Z,954.4300
2022-09-24T00:27:40.180Z,954.4300
2022-09-24T00:27:51.221Z,954.4100
2022-09-24T00:28:02.445Z,954.4300
2022-09-24T00:28:13.637Z,954.4300
2022-09-24T00:28:24.855Z,954.4100
2022-09-24T00:28:35.975Z,954.4100
2022-09-24T00:28:47.015Z,954.4100
2022-09-24T00:28:58.162Z,954.4300
2022-09-24T00:29:09.228Z,954.4300
2022-09-24T00:29:20.303Z,954.4300
2022-09-24T00:29:31.572Z,954.4100
2022-09-24T00:29:42.654Z,954.4300
2022-09-24T00:29:53.691Z,954.4300
2022-09-24T00:30:04.767Z,954.4300
2022-09-24T00:30:16.006Z,954.4300
2022-09-24T00:30:27.178Z,954.4100
2022-09-24T00:30:38.249Z,954.4100
2022-09-24T00:30:49.289Z,954.4300
2022-09-24T00:31:00.469Z,954.4100
2022-09-24T00:31:11.553Z,954.4300
2022-09-24T00:31:22.643Z,954.4100
2022-09-24T00:31:33.919Z,954.4100
2022-09-24T00:31:45.268Z,954.4100
2022-09-24T00:31:56.444Z,954.4100
2022-09-24T00:32:07.501Z,954.3900
2022-09-24T00:32:18.623Z,954.3900
2022-09-24T00:32:29.750Z,954.3900
2022-09-24T00:32:40.789Z,954.4100
2022-09-24T00:32:51.828Z,954.4300
2022-09-24T00:33:02.960Z,954.3900
2022-09-24T00:33:14.040Z,954.3900
2022-09-24T00:33:25.103Z,954.3900
2022-09-24T00:33:36.174Z,954.3900
2022-09-24T00:33:47.246Z,954.3900
2022-09-24T00:33:58.400Z,954.3700
2022-09-24T00:34:09.664Z,954.3700
2022-09-24T00:34:20.754Z,954.3700
2022-09-24T00:34:32.165Z,954.4100
2022-09-24T00:34:43.220Z,954.3900
2022-09-24T00:34:54.294Z,954.4100
2022-09-24T00:35:05.695Z,954.4100
2022-09-24T00:35:16.937Z,954.4100
2022-09-24T00:35:28.125Z,954.4300
2022-09-24T00:35:39.346Z,954.4300
2022-09-24T00:35:50.560Z,954.4300
2022-09-24T00:36:01.606Z,954.4300
2022-09-24T00:36:12.668Z,954.4300
2022-09-24T00:36:23.806Z,954.4300
2022-09-24T00:36:35.041Z,954.4300
2022-09-24T00:36:46.081Z,954.4400
2022-09-24T00:36:57.123Z,954.4400
2022-09-24T00:37:08.247Z,954.4600
2022-09-24T00:37:19.401Z,954.4600
2022-09-24T00:37:30.480Z,954.5000
2022-09-24T00:37:41.649Z,954.5000
2022-09-24T00:37:52.815Z,954.5000
2022-09-24T00:38:03.900Z,954.5200
2022-09-24T00:38:14.947Z,954.5200
2022-09-24T00:38:26.269Z,954.5400
2022-09-24T00:38:37.397Z,954.5400
2022-09-24T00:38:48.447Z,954.5400
2022-09-24T00:38:59.540Z,954.5400
2022-09-24T00:39:10.575Z,954.5200
2022-09-24T00:39:21.678Z,954.5400
2022-09-24T00:39:32.732Z,954.5400
2022-09-24T00:39:43.802Z,954.5600
2022-09-24T00:39:54.922Z,954.5200
2022-09-24T00:40:06.062Z,954.5200
2022-09-24T00:40:17.258Z,954.5200
2022-09-24T00:40:28.515Z,954.5400
2022-09-24T00:40:39.632Z,954.5400
2022-09-24T00:40:50.721Z,954.5400
2022-09-24T00:41:02.024Z,954.5400
2022-09-24T00:41:13.076Z,954.5600
2022-09-24T00:41:24.281Z,954.5600
2022-09-24T00:41:35.334Z,954.5600
2022-09-24T00:41:46.373Z,954.5600
2022-09-24T00:41:57.509Z,954.5600
2022-09-24T00:42:08.566Z,954.5600
2022-09-24T00:42:19.757Z,954.5800
2022-09-24T00:42:30.953Z,954.5600
2022-09-24T00:42:41.996Z,954.5600
2022-09-24T00:42:53.060Z,954.5800
2022-09-24T00:43:04.240Z,954.5800
2022-09-24T00:43:15.310Z,954.5600
2022-09-24T00:43:26.391Z,954.5600
2022-09-24T00:43:37.542Z,954.5600
2022-09-24T00:43:48.582Z,954.5600
2022-09-24T00:43:59.712Z,954.5400
2022-09-24T00:44:10.793Z,954.5600
2022-09-24T00:44:21.872Z,954.5600
2022-09-24T00:44:33.075Z,954.5600
2022-09-24T00:44:44.131Z,954.5600
2022-09-24T00:44:55.177Z,954.5400
2022-09-24T00:45:06.462Z,954.5800
2022-09-24T00:45:17.517Z,954.5600
2022-09-24T00:45:28.580Z,954.5600
2022-09-24T00:45:39.667Z,954.5800
2022-09-24T00:45:50.792Z,954.6000
2022-09-24T00:46:02.402Z,954.5800
2022-09-24T00:46:13.561Z,954.5800
2022-09-24T00:46:24.728Z,954.6000
2022-09-24T00:46:35.894Z,954.6000
2022-09-24T00:46:47.087Z,954.6000
2022-09-24T00:46:58.326Z,954.6200
2022-09-24T00:47:09.535Z,954.6200
2022-09-24T00:47:20.632Z,954.6200
2022-09-24T00:47:31.713Z,954.6200
2022-09-24T00:47:42.929Z,954.6200
2022-09-24T00:47:54.161Z,954.6200
2022-09-24T00:48:05.358Z,954.6400
2022-09-24T00:48:16.418Z,954.6400
2022-09-24T00:48:27.485Z,954.6400
2022-09-24T00:48:38.546Z,954.6200
2022-09-24T00:48:49.760Z,954.6600
2022-09-24T00:49:00.935Z,954.6600
2022-09-24T00:49:12.176Z,954.6600
2022-09-24T00:49:23.449Z,954.6600
2022-09-24T00:49:34.650Z,954.6600
2022-09-24T00:49:45.856Z,954.6600
2022-09-24T00:49:57.034Z,954.6600
2022-09-24T00:50:08.342Z,954.6600
2022-09-24T00:50:19.387Z,954.6600
2022-09-24T00:50:30.444Z,954.6800
2022-09-24T00:50:41.513Z,954.6800
2022-09-24T00:50:52.983Z,954.6800
2022-09-24T00:51:04.039Z,954.7000
2022-09-24T00:51:15.076Z,954.7000
2022-09-24T00:51:26.207Z,954.7200
2022-09-24T00:51:37.260Z,954.7400
2022-09-24T00:51:48.303Z,954.7400
2022-09-24T00:51:59.466Z,954.7400
2022-09-24T00:52:10.595Z,954.7400
2022-09-24T00:52:21.766Z,954.7400
2022-09-24T00:52:33.002Z,954.7400
2022-09-24T00:52:44.058Z,954.7200
2022-09-24T00:52:55.436Z,954.7000
2022-09-24T00:53:06.496Z,954.7000
2022-09-24T00:53:17.564Z,954.7200
2022-09-24T00:53:28.733Z,954.7200
2022-09-24T00:53:39.814Z,954.7400
2022-09-24T00:53:50.890Z,954.7400
2022-09-24T00:54:02.148Z,954.7800
2022-09-24T00:54:13.186Z,954.7400
2022-09-24T00:54:24.221Z,954.7400
2022-09-24T00:54:35.275Z,954.7400
2022-09-24T00:54:46.344Z,954.7200
2022-09-24T00:54:57.450Z,954.7400
2022-09-24T00:55:08.654Z,954.7200
2022-09-24T00:55:19.721Z,954.7200
2022-09-24T00:55:30.859Z,954.7200
2022-09-24T00:55:41.927Z,954.7200
2022-09-24T00:55:52.972Z,954.7200
2022-09-24T00:56:04.098Z,954.7000
2022-09-24T00:56:15.161Z,954.7000
2022-09-24T00:56:26.228Z,954.6800
2022-09-24T00:56:37.457Z,954.7200
2022-09-24T00:56:48.510Z,954.7000
2022-09-24T00:56:59.688Z,954.7200
2022-09-24T00:57:10.728Z,954.7000
2022-09-24T00:57:21.778Z,954.7200
2022-09-24T00:57:32.868Z,954.7000
2022-09-24T00:57:44.048Z,954.7200
2022-09-24T00:57:55.248Z,954.7200
2022-09-24T00:58:06.387Z,954.7200
2022-09-24T00:58:17.463Z,954.7400
2022-09-24T00:58:28.493Z,954.7400
2022-09-24T00:58:39.600Z,954.7400
2022-09-24T00:58:50.795Z,954.7000
2022-09-24T00:59:02.239Z,954.7200
2022-09-24T00:59:13.279Z,954.7200
2022-09-24T00:59:24.354Z,954.7200
2022-09-24T00:59:35.594Z,954.7000
2022-09-24T00:59:46.679Z,954.7000
2022-09-24T00:59:57.745Z,954.7000
2022-09-24T01:00:08.884Z,954.7000
2022-09-24T01:00:20.120Z,954.7000
2022-09-24T01:00:31.250Z,954.7000
2022-09-24T01:00:42.366Z,954.7000
2022-09-24T01:00:53.621Z,954.7000
2022-09-24T01:01:04.909Z,954.7000
2022-09-24T01:01:16.102Z,954.7000
2022-09-24T01:01:27.273Z,954.7000
2022-09-24T01:01:38.554Z,954.7000
2022-09-24T01:01:49.669Z,954.6800
2022-09-24T01:02:00.775Z,954.6800
2022-09-24T01:02:11.868Z,954.6800
2022-09-24T01:02:23.062Z,954.6800
2022-09-24T01:02:34.218Z,954.6800
2022-09-24T01:02:45.367Z,954.6800
2022-09-24T01:02:56.551Z,954.6800
2022-09-24T01:03:07.764Z,954.6800
2022-09-24T01:03:18.812Z,954.6600
2022-09-24T01:03:29.861Z,954.6800
2022-09-24T01:03:41.103Z,954.6600
2022-09-24T01:03:52.150Z,954.6800
2022-09-24T01:04:03.213Z,954.6800
2022-09-24T01:04:14.275Z,954.6800
2022-09-24T01:04:25.407Z,954.6600
2022-09-24T01:04:36.470Z,954.6800
2022-09-24T01:04:47.551Z,954.6800
2022-09-24T01:04:58.805Z,954.6600
2022-09-24T01:05:10.004Z,954.7000
2022-09-24T01:05:21.077Z,954.6800
2022-09-24T01:05:32.169Z,954.6800
2022-09-24T01:05:43.301Z,954.6800
2022-09-24T01:05:54.368Z,954.6800
2022-09-24T01:06:05.421Z,954.6800
2022-09-24T01:06:16.639Z,954.6600
2022-09-24T01:06:27.756Z,954.6600
2022-09-24T01:06:38.805Z,954.6600
2022-09-24T01:06:49.889Z,954.6600
2022-09-24T01:07:01.004Z,954.6800
2022-09-24T01:07:12.388Z,954.6800
2022-09-24T01:07:23.546Z,954.6600
2022-09-24T01:07:34.723Z,954.6600
2022-09-24T01:07:45.715Z,954.6600
2022-09-24T01:07:56.775Z,954.6600
2022-09-24T01:08:07.808Z,954.6600
2022-09-24T01:08:18.885Z,954.6200
2022-09-24T01:08:30.006Z,954.6200
2022-09-24T01:08:41.300Z,954.6200
2022-09-24T01:08:52.339Z,954.6200
2022-09-24T01:09:03.491Z,954.6200
2022-09-24T01:09:14.542Z,954.6200
2022-09-24T01:09:25.621Z,954.6000
2022-09-24T01:09:36.723Z,954.6000
2022-09-24T01:09:47.923Z,954.5800
2022-09-24T01:09:59.126Z,954.5800
2022-09-24T01:10:10.324Z,954.5600
2022-09-24T01:10:21.523Z,954.5600
2022-09-24T01:10:32.661Z,954.5800
2022-09-24T01:10:43.701Z,954.5800
2022-09-24T01:10:54.741Z,954.5800
2022-09-24T01:11:05.880Z,954.5600
2022-09-24T01:11:16.940Z,954.5600
2022-09-24T01:11:28.064Z,954.5600
2022-09-24T01:11:39.111Z,954.5400
2022-09-24T01:11:50.178Z,954.5400
2022-09-24T01:12:01.239Z,954.5000
2022-09-24T01:12:12.372Z,954.5000
2022-09-24T01:12:23.854Z,954.5000
2022-09-24T01:12:34.982Z,954.5000
2022-09-24T01:12:46.072Z,954.4800
2022-09-24T01:12:57.290Z,954.5200
2022-09-24T01:13:08.428Z,954.5200
2022-09-24T01:13:19.498Z,954.5200
2022-09-24T01:13:30.568Z,954.5000
2022-09-24T01:13:43.657Z,954.5000
2022-09-24T01:13:54.939Z,954.5200
2022-09-24T01:14:06.257Z,954.5200
2022-09-24T01:14:17.264Z,954.5200
2022-09-24T01:14:28.326Z,954.5200
2022-09-24T01:14:39.474Z,954.5200
2022-09-24T01:14:50.543Z,954.5200
2022-09-24T01:15:01.607Z,954.5400
2022-09-24T01:15:12.741Z,954.5400
2022-09-24T01:15:23.814Z,954.5400
2022-09-24T01:15:34.854Z,954.5400
2022-09-24T01:15:45.976Z,954.5400
2022-09-24T01:15:57.155Z,954.5400
2022-09-24T01:16:08.296Z,954.5400
2022-09-24T01:16:19.424Z,954.5400
2022-09-24T01:16:30.550Z,954.5400
2022-09-24T01:16:41.915Z,954.5400
2022-09-24T01:16:52.977Z,954.5400
2022-09-24T01:17:04.007Z,954.5400
2022-09-24T01:17:15.071Z,954.5400
2022-09-24T01:17:26.200Z,954.5600
2022-09-24T01:17:37.276Z,954.5600
2022-09-24T01:17:48.319Z,954.5600
2022-09-24T01:17:59.450Z,954.5600
2022-09-24T01:18:10.584Z,954.5600
2022-09-24T01:18:21.722Z,954.5600
2022-09-24T01:18:32.803Z,954.5600
2022-09-24T01:18:43.972Z,954.5600
2022-09-24T01:18:55.016Z,954.5600
2022-09-24T01:19:06.055Z,954.5600
2022-09-24T01:19:17.102Z,954.5600
2022-09-24T01:19:28.246Z,954.5400
2022-09-24T01:19:39.312Z,954.5400
2022-09-24T01:19:50.387Z,954.5400
2022-09-24T01:20:01.523Z,954.5400
2022-09-24T01:20:12.842Z,954.5400
2022-09-24T01:20:24.019Z,954.5400
2022-09-24T01:20:35.211Z,954.5400
2022-09-24T01:20:46.419Z,954.5200
2022-09-24T01:20:57.615Z,954.5200
2022-09-24T01:21:08.824Z,954.5200
2022-09-24T01:21:20.016Z,954.5000
2022-09-24T01:21:31.153Z,954.5000
2022-09-24T01:21:42.218Z,954.5000
2022-09-24T01:21:53.282Z,954.4800
2022-09-24T01:22:04.467Z,954.4800
2022-09-24T01:22:15.648Z,954.4600
2022-09-24T01:22:26.682Z,954.4600
2022-09-24T01:22:37.769Z,954.4400
2022-09-24T01:22:48.858Z,954.4300
2022-09-24T01:23:00.071Z,954.4300
2022-09-24T01:23:11.098Z,954.4400
2022-09-24T01:23:22.153Z,954.4300
2022-09-24T01:23:33.363Z,954.4100
2022-09-24T01:23:48.576Z,954.4100
2022-09-24T01:24:00.234Z,954.4100
2022-09-24T01:24:11.363Z,954.3700
2022-09-24T01:24:22.495Z,954.3700
2022-09-24T01:24:33.646Z,954.3700
2022-09-24T01:24:44.671Z,954.3500
2022-09-24T01:24:55.736Z,954.3500
2022-09-24T01:25:06.866Z,954.3500
2022-09-24T01:25:17.943Z,954.3300
2022-09-24T01:25:29.069Z,954.3100
2022-09-24T01:25:40.199Z,954.3100
2022-09-24T01:25:51.331Z,954.3100
2022-09-24T01:26:02.400Z,954.2900
2022-09-24T01:26:13.480Z,954.2900
2022-09-24T01:26:24.538Z,954.3100
2022-09-24T01:26:35.774Z,954.3100
2022-09-24T01:26:46.837Z,954.2900
2022-09-24T01:26:58.046Z,954.2700
2022-09-24T01:27:09.275Z,954.2900
2022-09-24T01:27:20.492Z,954.2900
2022-09-24T01:27:31.516Z,954.2700
2022-09-24T01:27:42.664Z,954.2500
2022-09-24T01:27:53.742Z,954.2500
2022-09-24T01:28:04.790Z,954.2300
2022-09-24T01:28:15.863Z,954.2500
2022-09-24T01:28:27.003Z,954.2300
2022-09-24T01:28:38.150Z,954.2500
2022-09-24T01:28:49.265Z,954.2500
2022-09-24T01:29:00.301Z,954.2500
2022-09-24T01:29:11.432Z,954.2300
2022-09-24T01:29:22.503Z,954.2300
2022-09-24T01:29:33.542Z,954.2300
2022-09-24T01:29:44.587Z,954.2300
2022-09-24T01:29:55.732Z,954.2500
2022-09-24T01:30:06.766Z,954.2500
2022-09-24T01:30:17.813Z,954.2300
2022-09-24T01:30:28.901Z,954.2300
2022-09-24T01:30:42.185Z,954.2100
2022-09-24T01:30:53.727Z,954.2300
2022-09-24T01:31:04.941Z,954.2300
2022-09-24T01:31:16.132Z,954.2300
2022-09-24T01:31:27.357Z,954.2300
2022-09-24T01:31:38.546Z,954.2100
2022-09-24T01:31:49.656Z,954.2100
2022-09-24T01:32:00.877Z,954.2100
2022-09-24T01:32:12.005Z,954.2100
2022-09-24T01:32:23.159Z,954.2100
2022-09-24T01:32:34.211Z,954.2100
2022-09-24T01:32:45.320Z,954.2100
2022-09-24T01:32:56.361Z,954.2100
2022-09-24T01:33:07.570Z,954.2100
2022-09-24T01:33:18.771Z,954.2100
2022-09-24T01:33:29.901Z,954.2100
2022-09-24T01:33:40.957Z,954.2300
2022-09-24T01:33:52.171Z,954.2100
2022-09-24T01:34:03.300Z,954.2100
2022-09-24T01:34:14.771Z,954.2100
2022-09-24T01:34:25.832Z,954.2300
2022-09-24T01:34:37.171Z,954.2100
2022-09-24T01:34:48.332Z,954.1900
2022-09-24T01:34:59.362Z,954.1900
2022-09-24T01:35:10.521Z,954.1900
2022-09-24T01:35:21.605Z,954.1900
2022-09-24T01:35:32.665Z,954.1900
2022-09-24T01:35:43.772Z,954.2100
2022-09-24T01:35:54.810Z,954.2300
2022-09-24T01:36:05.986Z,954.2100
2022-09-24T01:36:17.030Z,954.2100
2022-09-24T01:36:28.113Z,954.2100
2022-09-24T01:36:39.243Z,954.1900
2022-09-24T01:36:50.445Z,954.2300
2022-09-24T01:37:01.496Z,954.2100
2022-09-24T01:37:12.563Z,954.2100
2022-09-24T01:37:23.600Z,954.2100
2022-09-24T01:37:34.748Z,954.2100
2022-09-24T01:37:46.033Z,954.2100
2022-09-24T01:37:57.262Z,954.2300
2022-09-24T01:38:08.383Z,954.2300
2022-09-24T01:38:19.434Z,954.2500
2022-09-24T01:38:30.495Z,954.2100
2022-09-24T01:38:41.685Z,954.2300
2022-09-24T01:38:52.789Z,954.2500
2022-09-24T01:39:03.847Z,954.2500
2022-09-24T01:39:14.892Z,954.2300
2022-09-24T01:39:26.028Z,954.2300
2022-09-24T01:39:37.221Z,954.2500
2022-09-24T01:39:48.263Z,954.2700
2022-09-24T01:39:59.325Z,954.2500
2022-09-24T01:40:10.493Z,954.2500
2022-09-24T01:40:21.572Z,954.2500
2022-09-24T01:40:32.862Z,954.2700
2022-09-24T01:40:44.137Z,954.2700
2022-09-24T01:40:55.348Z,954.2700
2022-09-24T01:41:06.454Z,954.2700
2022-09-24T01:41:17.595Z,954.2700
2022-09-24T01:41:28.739Z,954.2700
2022-09-24T01:41:39.880Z,954.2700
2022-09-24T01:41:50.932Z,954.2900
2022-09-24T01:42:01.982Z,954.2500
2022-09-24T01:42:13.112Z,954.2500
2022-09-24T01:42:24.191Z,954.2700
2022-09-24T01:42:35.390Z,954.2700
2022-09-24T01:42:46.582Z,954.2700
2022-09-24T01:42:57.783Z,954.2700
2022-09-24T01:43:08.982Z,954.2900
2022-09-24T01:43:20.192Z,954.2700
2022-09-24T01:43:31.431Z,954.2700
2022-09-24T01:43:42.641Z,954.2700
2022-09-24T01:43:53.714Z,954.2500
2022-09-24T01:44:04.799Z,954.2500
2022-09-24T01:44:15.840Z,954.2500
2022-09-24T01:44:26.903Z,954.2700
2022-09-24T01:44:38.063Z,954.2500
2022-09-24T01:44:49.265Z,954.2900
2022-09-24T01:45:00.464Z,954.2700
2022-09-24T01:45:11.664Z,954.2700
2022-09-24T01:45:22.721Z,954.2700
2022-09-24T01:45:33.857Z,954.2700
2022-09-24T01:45:45.035Z,954.2700
2022-09-24T01:45:56.182Z,954.2700
2022-09-24T01:46:07.418Z,954.2700
2022-09-24T01:46:18.662Z,954.2700
2022-09-24T01:46:29.780Z,954.2900
2022-09-24T01:46:40.927Z,954.2900
2022-09-24T01:46:52.270Z,954.2900
2022-09-24T01:47:03.462Z,954.2900
2022-09-24T01:47:14.581Z,954.2900
2022-09-24T01:47:25.811Z,954.3100
2022-09-24T01:47:37.012Z,954.3100
2022-09-24T01:47:48.210Z,954.2900
2022-09-24T01:47:59.266Z,954.3100
2022-09-24T01:48:10.305Z,954.3100
2022-09-24T01:48:21.514Z,954.3100
2022-09-24T01:48:32.644Z,954.3100
2022-09-24T01:48:43.764Z,954.3300
2022-09-24T01:48:54.860Z,954.3300
2022-09-24T01:49:05.981Z,954.3300
2022-09-24T01:49:17.141Z,954.3500
2022-09-24T01:49:28.197Z,954.3500
2022-09-24T01:49:39.449Z,954.3500
2022-09-24T01:49:50.511Z,954.3300
2022-09-24T01:50:01.552Z,954.3500
2022-09-24T01:50:12.608Z,954.3700
2022-09-24T01:50:23.808Z,954.3700
2022-09-24T01:50:35.364Z,954.3700
2022-09-24T01:50:46.425Z,954.3700
2022-09-24T01:50:57.462Z,954.3700
2022-09-24T01:51:08.613Z,954.3700
2022-09-24T01:51:19.671Z,954.3700
2022-09-24T01:51:30.734Z,954.3700
2022-09-24T01:51:41.786Z,954.3700
2022-09-24T01:51:52.848Z,954.3900
2022-09-24T01:52:03.937Z,954.3900
2022-09-24T01:52:14.978Z,954.3900
2022-09-24T01:52:26.031Z,954.3700
2022-09-24T01:52:37.212Z,954.3900
2022-09-24T01:52:48.408Z,954.3700
2022-09-24T01:52:59.457Z,954.3900
2022-09-24T01:53:10.775Z,954.3900
2022-09-24T01:53:21.850Z,954.3900
2022-09-24T01:53:33.078Z,954.4100
2022-09-24T01:53:44.199Z,954.4100
2022-09-24T01:53:55.376Z,954.4100
2022-09-24T01:54:06.666Z,954.4300
2022-09-24T01:54:17.825Z,954.4100
2022-09-24T01:54:28.879Z,954.4300
2022-09-24T01:54:40.193Z,954.4100
2022-09-24T01:54:51.233Z,954.4100
2022-09-24T01:55:02.273Z,954.4100
2022-09-24T01:55:13.408Z,954.4100
2022-09-24T01:55:24.459Z,954.3900
2022-09-24T01:55:35.526Z,954.4100
2022-09-24T01:55:46.571Z,954.4100
2022-09-24T01:55:57.646Z,954.4100
2022-09-24T01:56:08.741Z,954.3900
2022-09-24T01:56:19.957Z,954.3700
2022-09-24T01:56:31.523Z,954.3700
2022-09-24T01:56:42.664Z,954.3700
2022-09-24T01:56:53.696Z,954.3500
2022-09-24T01:57:04.746Z,954.3500
2022-09-24T01:57:15.825Z,954.3500
2022-09-24T01:57:26.945Z,954.3500
2022-09-24T01:57:38.145Z,954.3500
2022-09-24T01:57:49.198Z,954.3500
2022-09-24T01:58:00.225Z,954.3500
2022-09-24T01:58:11.280Z,954.3300
2022-09-24T01:58:22.335Z,954.3300
2022-09-24T01:58:33.620Z,954.2900
2022-09-24T01:58:44.746Z,954.2900
2022-09-24T01:58:55.972Z,954.2900
2022-09-24T01:59:07.057Z,954.2900
2022-09-24T01:59:18.101Z,954.2900
2022-09-24T01:59:29.302Z,954.3300
2022-09-24T01:59:40.511Z,954.3300
2022-09-24T01:59:51.541Z,954.3300
2022-09-24T02:00:02.687Z,954.3300
2022-09-24T02:00:13.725Z,954.3500
2022-09-24T02:00:24.922Z,954.3300
2022-09-24T02:00:36.088Z,954.3100
2022-09-24T02:00:47.158Z,954.3300
2022-09-24T02:00:58.233Z,954.3300
2022-09-24T02:01:09.371Z,954.3300
2022-09-24T02:01:20.486Z,954.3300
2022-09-24T02:01:31.531Z,954.3300
2022-09-24T02:01:42.657Z,954.3500
2022-09-24T02:01:53.893Z,954.3500
2022-09-24T02:02:05.007Z,954.3300
2022-09-24T02:02:16.276Z,954.3300
2022-09-24T02:02:27.408Z,954.3300
2022-09-24T02:02:38.531Z,954.3300
2022-09-24T02:02:49.582Z,954.3700
2022-09-24T02:03:00.644Z,954.3500
2022-09-24T02:03:11.690Z,954.3500
2022-09-24T02:03:22.732Z,954.3500
2022-09-24T02:03:33.823Z,954.3300
2022-09-24T02:03:44.940Z,954.3500
2022-09-24T02:03:56.172Z,954.3500
2022-09-24T02:04:07.562Z,954.3500
2022-09-24T02:04:18.705Z,954.3300
2022-09-24T02:04:29.919Z,954.3300
2022-09-24T02:04:41.045Z,954.3300
2022-09-24T02:04:52.107Z,954.3300
2022-09-24T02:05:03.177Z,954.3100
2022-09-24T02:05:14.207Z,954.3100
2022-09-24T02:05:25.381Z,954.3100
2022-09-24T02:05:36.606Z,954.3100
2022-09-24T02:05:47.621Z,954.2900
2022-09-24T02:05:58.832Z,954.2900
2022-09-24T02:06:09.983Z,954.2900
2022-09-24T02:06:21.143Z,954.2700
2022-09-24T02:06:32.343Z,954.2900
2022-09-24T02:06:43.488Z,954.2900
2022-09-24T02:06:54.908Z,954.2900
2022-09-24T02:07:05.956Z,954.2700
2022-09-24T02:07:17.002Z,954.2700
2022-09-24T02:07:28.061Z,954.2700
2022-09-24T02:07:39.261Z,954.2500
2022-09-24T02:07:50.460Z,954.2300
2022-09-24T02:08:01.501Z,954.2500
2022-09-24T02:08:12.723Z,954.2500
2022-09-24T02:08:23.774Z,954.2100
2022-09-24T02:08:34.838Z,954.2100
2022-09-24T02:08:45.928Z,954.1900
2022-09-24T02:08:57.031Z,954.2100
2022-09-24T02:09:08.152Z,954.1900
2022-09-24T02:09:19.295Z,954.1700
2022-09-24T02:09:30.352Z,954.1700
2022-09-24T02:09:41.417Z,954.1700
2022-09-24T02:09:52.584Z,954.1500
2022-09-24T02:10:03.612Z,954.1700
2022-09-24T02:10:14.733Z,954.1700
2022-09-24T02:10:25.776Z,954.1700
2022-09-24T02:10:36.853Z,954.1500
2022-09-24T02:10:48.061Z,954.1700
2022-09-24T02:10:59.263Z,954.1700